Time;durP1;ratioP1;P1;durP2;ratioP2;P2;SDS_P1;SDS_P2;PMS_P1;PMS_P2;Temp;Humidity;BMP_temperature;BMP_pressure;BME280_temperature;BME280_humidity;BME280_pressure;Samples;Min_cycle;Max_cycle;Signal;HPM_P1;HPM_P2
2023/12/09 00:00:41;;;;;;;;;;;7.50;99.90;;;;;;5115081;27;19996;-31
2023/12/09 00:03:08;;;;;;;;;;;7.40;99.90;;;;;;5117096;27;20419;-31
2023/12/09 00:05:35;;;;;;;;;;;7.50;99.90;;;;;;5131936;27;19945;-32
2023/12/09 00:08:03;;;;;;;;;;;7.50;99.90;;;;;;5135248;27;19936;-32
2023/12/09 00:10:30;;;;;;;;;;;7.50;99.90;;;;;;5135859;27;20355;-32
2023/12/09 00:12:57;;;;;;;;;;;7.50;99.90;;;;;;5128619;27;19955;-32
2023/12/09 00:15:23;;;;;;;;;;;7.50;99.90;;;;;;5108382;27;19989;-32
2023/12/09 00:17:51;;;;;;;;;;;7.40;99.90;;;;;;5116385;27;19991;-30
2023/12/09 00:20:17;;;;;;;;;;;7.50;99.90;;;;;;5116340;27;20461;-30
2023/12/09 00:22:44;;;;;;;;;;;7.50;99.90;;;;;;5109455;27;19941;-31
2023/12/09 00:25:12;;;;;;;;;;;7.50;99.90;;;;;;5113270;27;19940;-31
2023/12/09 00:27:38;;;;;;;;;;;7.50;99.90;;;;;;5129639;27;19944;-31
2023/12/09 00:30:06;;;;;;;;;;;7.50;99.90;;;;;;5117588;27;19942;-31
2023/12/09 00:32:33;;;;;;;;;;;7.50;99.90;;;;;;5115789;27;19935;-32
2023/12/09 00:35:00;;;;;;;;;;;7.50;99.90;;;;;;5129055;27;19934;-31
2023/12/09 00:37:27;;;;;;;;;;;7.50;99.90;;;;;;5134747;27;19963;-31
2023/12/09 00:39:53;;;;;;;;;;;7.60;99.90;;;;;;5105056;28;20461;-30
2023/12/09 00:42:21;;;;;;;;;;;7.60;99.90;;;;;;5111026;28;20393;-31
2023/12/09 00:44:48;;;;;;;;;;;7.60;99.90;;;;;;5114474;27;20220;-31
2023/12/09 00:47:15;;;;;;;;;;;7.60;99.90;;;;;;5116305;27;19996;-31
2023/12/09 00:49:42;;;;;;;;;;;7.60;99.90;;;;;;5101379;28;19997;-30
2023/12/09 00:52:08;;;;;;;;;;;7.60;99.90;;;;;;5107530;28;19983;-31
2023/12/09 00:54:35;;;;;;;;;;;7.60;99.90;;;;;;5106538;27;19982;-32
2023/12/09 00:57:02;;;;;;;;;;;7.60;99.90;;;;;;5114764;27;20378;-32
2023/12/09 00:59:30;;;;;;;;;;;7.60;99.90;;;;;;5115357;27;19941;-32
2023/12/09 01:01:57;;;;;;;;;;;7.60;99.90;;;;;;5111868;27;19938;-31
2023/12/09 01:04:23;;;;;;;;;;;7.60;99.90;;;;;;5113497;27;20028;-32
2023/12/09 01:06:50;;;;;;;;;;;7.70;99.90;;;;;;5114200;27;20075;-32
2023/12/09 01:09:17;;;;;;;;;;;7.60;99.90;;;;;;5115087;27;19940;-32
2023/12/09 01:11:43;;;;;;;;;;;7.70;99.90;;;;;;5114739;27;19992;-31
2023/12/09 01:14:10;;;;;;;;;;;7.70;99.90;;;;;;5114781;27;19938;-31
2023/12/09 01:16:38;;;;;;;;;;;7.70;99.90;;;;;;5113905;27;20363;-32
2023/12/09 01:19:05;;;;;;;;;;;7.70;99.90;;;;;;5128710;27;19941;-31
2023/12/09 01:21:31;;;;;;;;;;;7.70;99.90;;;;;;5133309;27;19983;-30
2023/12/09 01:23:58;;;;;;;;;;;7.60;99.90;;;;;;5116465;27;20027;-31
2023/12/09 01:26:25;;;;;;;;;;;7.70;99.90;;;;;;5124973;27;19941;-31
2023/12/09 01:28:51;;;;;;;;;;;7.70;99.90;;;;;;5115410;27;19939;-32
2023/12/09 01:31:18;;;;;;;;;;;7.70;99.90;;;;;;5104719;28;19948;-31
2023/12/09 01:33:46;;;;;;;;;;;7.70;99.90;;;;;;5125530;27;19934;-31
2023/12/09 01:36:13;;;;;;;;;;;7.70;99.90;;;;;;5109647;28;19927;-30
2023/12/09 01:38:39;;;;;;;;;;;7.70;99.90;;;;;;5115448;27;20356;-31
2023/12/09 01:41:06;;;;;;;;;;;7.70;99.90;;;;;;5133169;27;19987;-32
2023/12/09 01:43:33;;;;;;;;;;;7.70;99.90;;;;;;5108330;28;19952;-31
2023/12/09 01:46:02;;;;;;;;;;;7.70;99.90;;;;;;5100882;27;19998;-31
2023/12/09 01:48:29;;;;;;;;;;;7.70;99.90;;;;;;5115328;27;19948;-31
2023/12/09 01:50:57;;;;;;;;;;;7.70;99.90;;;;;;5129265;27;19940;-32
2023/12/09 01:53:23;;;;;;;;;;;7.80;99.90;;;;;;5132363;27;20022;-31
2023/12/09 01:55:50;;;;;;;;;;;7.80;99.90;;;;;;5108064;28;19940;-32
2023/12/09 01:58:18;;;;;;;;;;;7.80;99.90;;;;;;5114620;27;20434;-31
2023/12/09 02:00:45;;;;;;;;;;;7.80;99.90;;;;;;5114426;27;19935;-31
2023/12/09 02:03:12;;;;;;;;;;;7.80;99.90;;;;;;5111711;27;19989;-31
2023/12/09 02:05:40;;;;;;;;;;;7.80;99.90;;;;;;5132866;27;19938;-31
2023/12/09 02:08:08;;;;;;;;;;;7.80;99.90;;;;;;5131632;27;19972;-31
2023/12/09 02:10:34;;;;;;;;;;;7.80;99.90;;;;;;5130056;27;20291;-30
2023/12/09 02:13:02;;;;;;;;;;;7.80;99.90;;;;;;5113606;27;19923;-31
2023/12/09 02:15:32;;;;;;;;;;;7.80;99.90;;;;;;5108859;28;19940;-31
2023/12/09 02:18:00;;;;;;;;;;;7.80;99.90;;;;;;5132359;27;19960;-30
2023/12/09 02:20:26;;;;;;;;;;;7.80;99.90;;;;;;5113078;27;19974;-32
2023/12/09 02:23:02;;;;;;;;;;;7.90;99.90;;;;;;5115603;27;19938;-32
2023/12/09 02:25:29;;;;;;;;;;;7.80;99.90;;;;;;5117877;27;19944;-32
2023/12/09 02:27:57;;;;;;;;;;;7.80;99.90;;;;;;5131104;27;19938;-31
2023/12/09 02:30:32;;;;;;;;;;;7.80;99.90;;;;;;5105411;27;20463;-32
2023/12/09 02:32:59;;;;;;;;;;;7.80;99.90;;;;;;5133212;27;20658;-32
2023/12/09 02:35:25;;;;;;;;;;;7.90;99.90;;;;;;5113207;27;19942;-32
2023/12/09 02:37:52;;;;;;;;;;;7.90;99.90;;;;;;5132716;27;20453;-32
2023/12/09 02:40:20;;;;;;;;;;;7.90;99.90;;;;;;5112675;28;19980;-32
2023/12/09 02:42:47;;;;;;;;;;;7.90;99.90;;;;;;5115199;28;19941;-31
2023/12/09 02:45:13;;;;;;;;;;;7.90;99.90;;;;;;5112519;28;19984;-30
2023/12/09 02:47:40;;;;;;;;;;;7.80;99.90;;;;;;5131036;28;20030;-31
2023/12/09 02:50:07;;;;;;;;;;;7.90;99.90;;;;;;5130949;28;19952;-31
2023/12/09 02:52:33;;;;;;;;;;;7.80;99.90;;;;;;5132704;28;20322;-32
2023/12/09 02:55:00;;;;;;;;;;;7.80;99.90;;;;;;5111712;28;19989;-32
2023/12/09 02:57:28;;;;;;;;;;;7.80;99.90;;;;;;5100495;28;19994;-32
2023/12/09 02:59:55;;;;;;;;;;;7.80;99.90;;;;;;5113264;28;19943;-30
2023/12/09 03:02:21;;;;;;;;;;;7.80;99.90;;;;;;5113039;28;19980;-30
2023/12/09 03:04:48;;;;;;;;;;;7.80;99.90;;;;;;5113673;28;19984;-31
2023/12/09 03:07:15;;;;;;;;;;;7.90;99.90;;;;;;5132076;28;20356;-31
2023/12/09 03:09:41;;;;;;;;;;;7.90;99.90;;;;;;5113062;28;20379;-31
2023/12/09 03:12:08;;;;;;;;;;;7.80;99.90;;;;;;5114361;28;19983;-31
2023/12/09 03:14:36;;;;;;;;;;;7.80;99.90;;;;;;5114173;28;19970;-31
2023/12/09 03:17:02;;;;;;;;;;;7.80;99.90;;;;;;5113890;28;20043;-30
2023/12/09 03:19:29;;;;;;;;;;;7.80;99.90;;;;;;5132359;27;20303;-31
2023/12/09 03:21:56;;;;;;;;;;;7.80;99.90;;;;;;5106779;27;20414;-31
2023/12/09 03:24:22;;;;;;;;;;;7.80;99.90;;;;;;5132416;27;19977;-31
2023/12/09 03:26:50;;;;;;;;;;;7.80;99.90;;;;;;5136045;27;19942;-31
2023/12/09 03:29:16;;;;;;;;;;;7.70;99.90;;;;;;5134821;27;19936;-31
2023/12/09 03:31:44;;;;;;;;;;;7.70;99.90;;;;;;5110920;28;19939;-31
2023/12/09 03:34:11;;;;;;;;;;;7.70;99.90;;;;;;5122464;27;19941;-31
2023/12/09 03:36:37;;;;;;;;;;;7.70;99.90;;;;;;5115999;27;19994;-31
2023/12/09 03:39:04;;;;;;;;;;;7.70;99.90;;;;;;5135061;27;19992;-32
2023/12/09 03:41:31;;;;;;;;;;;7.70;99.90;;;;;;5116271;27;19943;-32
2023/12/09 03:43:57;;;;;;;;;;;7.70;99.90;;;;;;5134170;27;19950;-32
2023/12/09 03:46:24;;;;;;;;;;;7.70;99.90;;;;;;5116827;27;20383;-32
2023/12/09 03:48:52;;;;;;;;;;;7.70;99.90;;;;;;5117355;27;19940;-30
2023/12/09 03:51:18;;;;;;;;;;;7.70;99.90;;;;;;5115444;27;19934;-32
2023/12/09 03:53:45;;;;;;;;;;;7.70;99.90;;;;;;5136227;27;19974;-32
2023/12/09 03:56:12;;;;;;;;;;;7.70;99.90;;;;;;5115474;27;19965;-31
2023/12/09 03:58:39;;;;;;;;;;;7.70;99.90;;;;;;5115110;27;19967;-31
2023/12/09 04:01:06;;;;;;;;;;;7.70;99.90;;;;;;5116312;27;19963;-31
2023/12/09 04:03:32;;;;;;;;;;;7.70;99.90;;;;;;5135828;27;19986;-32
2023/12/09 04:06:01;;;;;;;;;;;7.70;99.90;;;;;;5117926;27;19941;-32
2023/12/09 04:08:27;;;;;;;;;;;7.70;99.90;;;;;;5115673;27;20427;-32
2023/12/09 04:10:54;;;;;;;;;;;7.70;99.90;;;;;;5132411;27;19990;-32
2023/12/09 04:13:21;;;;;;;;;;;7.70;99.90;;;;;;5135368;27;20034;-30
2023/12/09 04:15:47;;;;;;;;;;;7.70;99.90;;;;;;5117191;27;20121;-31
2023/12/09 04:18:14;;;;;;;;;;;7.70;99.90;;;;;;5109038;27;19960;-31
2023/12/09 04:20:41;;;;;;;;;;;7.70;99.90;;;;;;5131153;27;19940;-31
2023/12/09 04:23:09;;;;;;;;;;;7.70;99.90;;;;;;5114642;27;20435;-32
2023/12/09 04:25:36;;;;;;;;;;;7.70;99.90;;;;;;5104319;27;20317;-32
2023/12/09 04:28:03;;;;;;;;;;;7.70;99.90;;;;;;5112883;27;19937;-31
2023/12/09 04:30:29;;;;;;;;;;;7.70;99.90;;;;;;5133525;27;20342;-30
2023/12/09 04:32:56;;;;;;;;;;;7.70;99.90;;;;;;5134157;27;20362;-32
2023/12/09 04:35:23;;;;;;;;;;;7.70;99.90;;;;;;5100659;28;20036;-32
2023/12/09 04:37:49;;;;;;;;;;;7.80;99.90;;;;;;5116226;27;19962;-31
2023/12/09 04:40:17;;;;;;;;;;;7.70;99.90;;;;;;5115023;27;19935;-31
2023/12/09 04:42:44;;;;;;;;;;;7.80;99.90;;;;;;5116795;27;19939;-32
2023/12/09 04:45:11;;;;;;;;;;;7.60;99.90;;;;;;5106200;28;19940;-32
2023/12/09 04:47:38;;;;;;;;;;;7.80;99.90;;;;;;5113786;27;19946;-32
2023/12/09 04:50:07;;;;;;;;;;;7.70;99.90;;;;;;5109764;27;19987;-31
2023/12/09 04:52:34;;;;;;;;;;;7.70;99.90;;;;;;5130597;27;19936;-31
2023/12/09 04:55:01;;;;;;;;;;;7.70;99.90;;;;;;5116028;27;19941;-31
2023/12/09 04:57:29;;;;;;;;;;;7.70;99.90;;;;;;5131469;27;19985;-30
2023/12/09 04:59:55;;;;;;;;;;;7.80;99.90;;;;;;5112846;27;19937;-32
2023/12/09 05:02:22;;;;;;;;;;;7.70;99.90;;;;;;5112687;27;19939;-31
2023/12/09 05:04:49;;;;;;;;;;;7.80;99.90;;;;;;5099850;28;19947;-33
2023/12/09 05:07:17;;;;;;;;;;;7.70;99.90;;;;;;5125828;27;19940;-31
2023/12/09 05:09:44;;;;;;;;;;;7.70;99.90;;;;;;5111750;27;19938;-31
2023/12/09 05:12:09;;;;;;;;;;;7.70;99.90;;;;;;5113170;27;19960;-31
2023/12/09 05:14:37;;;;;;;;;;;7.70;99.90;;;;;;5133924;27;20016;-32
2023/12/09 05:17:04;;;;;;;;;;;7.70;99.90;;;;;;5107403;28;19941;-30
2023/12/09 05:19:31;;;;;;;;;;;7.70;99.90;;;;;;5128883;27;19954;-32
2023/12/09 05:21:58;;;;;;;;;;;7.70;99.90;;;;;;5134338;27;19941;-31
2023/12/09 05:24:24;;;;;;;;;;;7.70;99.90;;;;;;5115860;27;20298;-31
2023/12/09 05:26:51;;;;;;;;;;;7.70;99.90;;;;;;5110812;27;19989;-31
2023/12/09 05:29:18;;;;;;;;;;;7.70;99.90;;;;;;5116383;27;19940;-31
2023/12/09 05:31:46;;;;;;;;;;;7.70;99.90;;;;;;5115942;27;19988;-31
2023/12/09 05:34:12;;;;;;;;;;;7.70;99.90;;;;;;5128258;27;19963;-33
2023/12/09 05:36:39;;;;;;;;;;;7.70;99.90;;;;;;5114995;27;20281;-30
2023/12/09 05:39:06;;;;;;;;;;;7.70;99.90;;;;;;5110345;28;20312;-31
2023/12/09 05:41:32;;;;;;;;;;;7.70;99.90;;;;;;5114607;27;19937;-31
2023/12/09 05:43:59;;;;;;;;;;;7.70;99.90;;;;;;5099981;28;19940;-30
2023/12/09 05:46:26;;;;;;;;;;;7.70;99.90;;;;;;5120645;27;19990;-32
2023/12/09 05:48:54;;;;;;;;;;;7.70;99.90;;;;;;5130232;27;20364;-32
2023/12/09 05:51:20;;;;;;;;;;;7.70;99.90;;;;;;5105569;27;19950;-31
2023/12/09 05:53:47;;;;;;;;;;;7.70;99.90;;;;;;5109724;27;19938;-31
2023/12/09 05:56:14;;;;;;;;;;;7.60;99.90;;;;;;5114208;27;19941;-31
2023/12/09 05:58:40;;;;;;;;;;;7.70;99.90;;;;;;5129675;27;20318;-31
2023/12/09 06:01:07;;;;;;;;;;;7.50;99.90;;;;;;5111394;27;20026;-32
2023/12/09 06:03:34;;;;;;;;;;;7.60;99.90;;;;;;5119749;27;20321;-32
2023/12/09 06:06:02;;;;;;;;;;;7.60;99.90;;;;;;5122350;27;19976;-31
2023/12/09 06:08:29;;;;;;;;;;;7.60;99.90;;;;;;5131402;27;19937;-32
2023/12/09 06:10:55;;;;;;;;;;;7.60;99.90;;;;;;5106747;27;20399;-31
2023/12/09 06:13:22;;;;;;;;;;;7.50;99.90;;;;;;5132760;27;19965;-31
2023/12/09 06:15:49;;;;;;;;;;;7.50;99.90;;;;;;5115801;27;19945;-32
2023/12/09 06:18:15;;;;;;;;;;;7.50;99.90;;;;;;5107417;27;19987;-30
2023/12/09 06:20:42;;;;;;;;;;;7.50;99.90;;;;;;5111875;27;19945;-32
2023/12/09 06:23:10;;;;;;;;;;;7.50;99.90;;;;;;5099244;28;19942;-32
2023/12/09 06:25:37;;;;;;;;;;;7.50;99.90;;;;;;5130258;27;20033;-30
2023/12/09 06:28:03;;;;;;;;;;;7.50;99.90;;;;;;5111894;27;19995;-32
2023/12/09 06:30:31;;;;;;;;;;;7.40;99.90;;;;;;5125152;27;19980;-32
2023/12/09 06:32:58;;;;;;;;;;;7.40;99.90;;;;;;5121455;27;20037;-31
2023/12/09 06:35:25;;;;;;;;;;;7.40;99.90;;;;;;5105552;28;20018;-32
2023/12/09 06:37:54;;;;;;;;;;;7.40;99.90;;;;;;5105613;27;20007;-31
2023/12/09 06:40:22;;;;;;;;;;;7.40;99.90;;;;;;5101584;28;19938;-31
2023/12/09 06:42:49;;;;;;;;;;;7.40;99.90;;;;;;5094915;28;19942;-31
2023/12/09 06:45:16;;;;;;;;;;;7.40;99.90;;;;;;5096508;28;19950;-31
2023/12/09 06:47:42;;;;;;;;;;;7.30;99.90;;;;;;5120765;28;19994;-32
2023/12/09 06:50:09;;;;;;;;;;;7.30;99.90;;;;;;5122598;28;19938;-32
2023/12/09 06:52:36;;;;;;;;;;;7.40;99.90;;;;;;5112015;28;19941;-31
2023/12/09 06:55:03;;;;;;;;;;;7.30;99.90;;;;;;5114234;28;20000;-32
2023/12/09 06:57:31;;;;;;;;;;;7.30;99.90;;;;;;5118722;27;19938;-32
2023/12/09 06:59:57;;;;;;;;;;;7.30;99.90;;;;;;5130286;27;19938;-31
2023/12/09 07:02:24;;;;;;;;;;;7.30;99.90;;;;;;5120641;27;19984;-32
2023/12/09 07:04:50;;;;;;;;;;;7.20;99.90;;;;;;5121688;27;19938;-32
2023/12/09 07:07:17;;;;;;;;;;;7.30;99.90;;;;;;5117109;27;19936;-31
2023/12/09 07:09:44;;;;;;;;;;;7.20;99.90;;;;;;5114861;27;19982;-32
2023/12/09 07:12:10;;;;;;;;;;;7.30;99.90;;;;;;5125427;27;20404;-31
2023/12/09 07:14:38;;;;;;;;;;;7.20;99.90;;;;;;5132517;27;20354;-32
2023/12/09 07:17:05;;;;;;;;;;;7.30;99.90;;;;;;5133558;27;20343;-32
2023/12/09 07:19:32;;;;;;;;;;;7.20;99.90;;;;;;5130417;27;20007;-32
2023/12/09 07:21:58;;;;;;;;;;;7.20;99.90;;;;;;5133112;27;19934;-32
2023/12/09 07:24:25;;;;;;;;;;;7.30;99.90;;;;;;5123798;27;19941;-31
2023/12/09 07:26:52;;;;;;;;;;;7.20;99.90;;;;;;5112830;27;20347;-32
2023/12/09 07:29:19;;;;;;;;;;;7.20;99.90;;;;;;5125602;27;20299;-32
2023/12/09 07:31:47;;;;;;;;;;;7.20;99.90;;;;;;5098609;28;20383;-31
2023/12/09 07:34:16;;;;;;;;;;;7.30;99.90;;;;;;5109918;27;19938;-31
2023/12/09 07:36:43;;;;;;;;;;;7.20;99.90;;;;;;5134624;27;20298;-31
2023/12/09 07:39:09;;;;;;;;;;;7.20;99.90;;;;;;5130420;27;19955;-31
2023/12/09 07:41:36;;;;;;;;;;;7.20;99.90;;;;;;5124484;27;19953;-32
2023/12/09 07:44:03;;;;;;;;;;;7.20;99.90;;;;;;5105152;28;19940;-31
2023/12/09 07:46:30;;;;;;;;;;;7.20;99.90;;;;;;5097967;28;19971;-30
2023/12/09 07:48:58;;;;;;;;;;;7.20;99.90;;;;;;5125566;27;19983;-31
2023/12/09 07:51:25;;;;;;;;;;;7.20;99.90;;;;;;5136561;27;19938;-31
2023/12/09 07:53:51;;;;;;;;;;;7.20;99.90;;;;;;5135420;27;19990;-31
2023/12/09 07:56:18;;;;;;;;;;;7.30;99.90;;;;;;5109824;27;19976;-31
2023/12/09 07:58:45;;;;;;;;;;;7.20;99.90;;;;;;5122353;27;20353;-30
2023/12/09 08:01:12;;;;;;;;;;;7.20;99.90;;;;;;5129445;27;19983;-31
2023/12/09 08:03:38;;;;;;;;;;;7.20;99.90;;;;;;5117898;27;19943;-30
2023/12/09 08:06:07;;;;;;;;;;;7.20;99.90;;;;;;5136162;27;19938;-31
2023/12/09 08:08:33;;;;;;;;;;;7.20;99.90;;;;;;5134525;27;20023;-32
2023/12/09 08:11:01;;;;;;;;;;;7.20;99.90;;;;;;5108289;28;19943;-31
2023/12/09 08:13:27;;;;;;;;;;;7.20;99.90;;;;;;5108868;27;20026;-31
2023/12/09 08:15:54;;;;;;;;;;;7.20;99.90;;;;;;5107556;27;19969;-31
2023/12/09 08:18:21;;;;;;;;;;;7.20;99.90;;;;;;5135754;27;19954;-32
2023/12/09 08:20:47;;;;;;;;;;;7.20;99.90;;;;;;5108552;27;19941;-31
2023/12/09 08:23:15;;;;;;;;;;;7.20;99.90;;;;;;5132231;27;19984;-31
2023/12/09 08:25:43;;;;;;;;;;;7.20;99.90;;;;;;5117740;27;19957;-32
2023/12/09 08:28:10;;;;;;;;;;;7.10;99.90;;;;;;5135756;27;20033;-31
2023/12/09 08:30:39;;;;;;;;;;;7.20;99.90;;;;;;5116918;27;20429;-31
2023/12/09 08:33:05;;;;;;;;;;;7.10;99.90;;;;;;5116607;27;19988;-32
2023/12/09 08:35:32;;;;;;;;;;;7.10;99.90;;;;;;5135468;27;19941;-31
2023/12/09 08:37:58;;;;;;;;;;;7.10;99.90;;;;;;5115673;27;19942;-32
2023/12/09 08:40:26;;;;;;;;;;;7.10;99.90;;;;;;5106185;28;19984;-31
2023/12/09 08:42:53;;;;;;;;;;;7.10;99.90;;;;;;5105869;27;19940;-31
2023/12/09 08:45:20;;;;;;;;;;;7.10;99.90;;;;;;5125571;27;19934;-31
2023/12/09 08:47:46;;;;;;;;;;;7.10;99.90;;;;;;5112510;27;20403;-31
2023/12/09 08:50:13;;;;;;;;;;;7.10;99.90;;;;;;5127998;27;20016;-31
2023/12/09 08:52:40;;;;;;;;;;;7.00;99.90;;;;;;5110040;27;20383;-31
2023/12/09 08:55:07;;;;;;;;;;;7.00;99.90;;;;;;5129962;27;20023;-31
2023/12/09 08:57:35;;;;;;;;;;;7.00;99.90;;;;;;5113521;27;19980;-32
2023/12/09 09:00:07;;;;;;;;;;;7.00;99.90;;;;;;5115857;27;20149;-31
2023/12/09 09:02:33;;;;;;;;;;;7.00;99.90;;;;;;5133662;27;19936;-31
2023/12/09 09:05:00;;;;;;;;;;;7.00;99.90;;;;;;5134378;27;19929;-32
2023/12/09 09:07:27;;;;;;;;;;;7.00;99.90;;;;;;5130801;27;19982;-32
2023/12/09 09:09:53;;;;;;;;;;;7.00;99.90;;;;;;5105503;27;19935;-31
2023/12/09 09:12:20;;;;;;;;;;;7.00;99.90;;;;;;5115480;27;20014;-31
2023/12/09 09:14:48;;;;;;;;;;;7.00;99.90;;;;;;5116310;27;19943;-32
2023/12/09 09:17:16;;;;;;;;;;;7.00;99.90;;;;;;5114788;28;19940;-32
2023/12/09 09:19:42;;;;;;;;;;;7.10;99.90;;;;;;5133230;27;19952;-30
2023/12/09 09:22:09;;;;;;;;;;;7.10;99.90;;;;;;5134915;27;20356;-31
2023/12/09 09:24:36;;;;;;;;;;;7.10;99.90;;;;;;5116331;27;19942;-31
2023/12/09 09:27:03;;;;;;;;;;;7.10;99.90;;;;;;5134042;27;20042;-31
2023/12/09 09:29:29;;;;;;;;;;;7.10;99.90;;;;;;5116319;27;19980;-31
2023/12/09 09:31:57;;;;;;;;;;;7.10;99.90;;;;;;5115690;27;19944;-31
2023/12/09 09:34:24;;;;;;;;;;;7.10;99.90;;;;;;5114048;27;19998;-32
2023/12/09 09:36:54;;;;;;;;;;;7.20;99.90;;;;;;5116273;27;19941;-31
2023/12/09 09:39:20;;;;;;;;;;;7.20;99.90;;;;;;5116215;27;19964;-32
2023/12/09 09:41:51;;;;;;;;;;;7.20;99.90;;;;;;5134546;27;20432;-31
2023/12/09 09:44:18;;;;;;;;;;;7.20;99.90;;;;;;5115514;27;19937;-31
2023/12/09 09:46:46;;;;;;;;;;;7.30;99.90;;;;;;5133362;27;19978;-31
2023/12/09 09:49:14;;;;;;;;;;;7.20;99.90;;;;;;5096875;27;19935;-31
2023/12/09 09:51:42;;;;;;;;;;;7.30;99.90;;;;;;5124481;27;19994;-32
2023/12/09 09:54:11;;;;;;;;;;;7.30;99.90;;;;;;5114062;27;19936;-32
2023/12/09 09:56:37;;;;;;;;;;;7.30;99.90;;;;;;5110828;27;19924;-31
2023/12/09 09:59:04;;;;;;;;;;;7.30;99.90;;;;;;5114621;27;19955;-31
2023/12/09 10:01:31;;;;;;;;;;;7.30;99.90;;;;;;5115803;27;19998;-31
2023/12/09 10:03:58;;;;;;;;;;;7.40;99.90;;;;;;5114883;27;19988;-31
2023/12/09 10:06:26;;;;;;;;;;;7.40;99.90;;;;;;5131329;27;19942;-32
2023/12/09 10:08:52;;;;;;;;;;;7.40;99.90;;;;;;5126946;27;19944;-31
2023/12/09 10:11:19;;;;;;;;;;;7.40;99.90;;;;;;5125196;27;19934;-31
2023/12/09 10:13:45;;;;;;;;;;;7.50;99.90;;;;;;5114763;27;20277;-32
2023/12/09 10:16:12;;;;;;;;;;;7.50;99.90;;;;;;5114022;27;19941;-29
2023/12/09 10:18:44;;;;;;;;;;;7.50;99.90;;;;;;5113944;28;19935;-32
2023/12/09 10:21:11;;;;;;;;;;;7.50;99.90;;;;;;5114132;27;19936;-30
2023/12/09 10:23:39;;;;;;;;;;;7.60;99.90;;;;;;5105922;27;19974;-32
2023/12/09 10:26:05;;;;;;;;;;;7.60;99.90;;;;;;5111873;27;20004;-30
2023/12/09 10:28:32;;;;;;;;;;;7.60;99.90;;;;;;5123968;27;20449;-31
2023/12/09 10:30:59;;;;;;;;;;;7.60;99.90;;;;;;5117036;27;19944;-32
2023/12/09 10:33:25;;;;;;;;;;;7.60;99.90;;;;;;5127565;27;19939;-31
2023/12/09 10:35:52;;;;;;;;;;;7.60;99.90;;;;;;5112671;27;19944;-32
2023/12/09 10:38:18;;;;;;;;;;;7.50;99.90;;;;;;5120371;27;19934;-31
2023/12/09 10:40:46;;;;;;;;;;;7.50;99.90;;;;;;5111777;27;20020;-32
2023/12/09 10:43:13;;;;;;;;;;;7.60;99.90;;;;;;5113520;28;19985;-32
2023/12/09 10:45:40;;;;;;;;;;;7.50;99.90;;;;;;5132584;28;20375;-31
2023/12/09 10:48:07;;;;;;;;;;;7.50;99.90;;;;;;5113659;28;19958;-31
2023/12/09 10:50:34;;;;;;;;;;;7.60;99.90;;;;;;5112642;28;19934;-31
2023/12/09 10:53:01;;;;;;;;;;;7.50;99.90;;;;;;5114715;28;19985;-32
2023/12/09 10:55:27;;;;;;;;;;;7.60;99.90;;;;;;5114774;28;20041;-31
2023/12/09 10:57:55;;;;;;;;;;;7.60;99.90;;;;;;5126888;28;19938;-32
2023/12/09 11:00:22;;;;;;;;;;;7.60;99.90;;;;;;5114684;28;20022;-32
2023/12/09 11:02:49;;;;;;;;;;;7.60;99.90;;;;;;5132998;28;20447;-32
2023/12/09 11:05:15;;;;;;;;;;;7.70;99.90;;;;;;5112575;28;19979;-31
2023/12/09 11:07:44;;;;;;;;;;;7.70;99.90;;;;;;5113798;28;19943;-31
2023/12/09 11:10:10;;;;;;;;;;;7.70;99.90;;;;;;5132881;28;20342;-31
2023/12/09 11:12:37;;;;;;;;;;;7.70;99.90;;;;;;5113955;28;19936;-31
2023/12/09 11:15:08;;;;;;;;;;;7.70;99.90;;;;;;5113516;28;20412;-32
2023/12/09 11:17:35;;;;;;;;;;;7.70;99.90;;;;;;5113425;28;19924;-32
2023/12/09 11:20:09;;;;;;;;;;;7.70;99.90;;;;;;5131688;28;20019;-31
2023/12/09 11:22:37;;;;;;;;;;;7.70;99.90;;;;;;5105147;28;19954;-31
2023/12/09 11:25:04;;;;;;;;;;;7.70;99.90;;;;;;5113494;28;19983;-32
2023/12/09 11:27:33;;;;;;;;;;;7.70;99.90;;;;;;5131991;28;20383;-30
2023/12/09 11:29:59;;;;;;;;;;;7.70;99.90;;;;;;5101800;28;19939;-30
2023/12/09 11:32:27;;;;;;;;;;;7.80;99.90;;;;;;5107407;28;20000;-31
2023/12/09 11:34:54;;;;;;;;;;;7.80;99.90;;;;;;5095823;28;19924;-32
2023/12/09 11:37:21;;;;;;;;;;;7.80;99.90;;;;;;5096580;28;19938;-32
2023/12/09 11:39:47;;;;;;;;;;;7.80;99.90;;;;;;5101013;28;20003;-31
2023/12/09 11:42:14;;;;;;;;;;;7.90;99.90;;;;;;5116175;28;19988;-32
2023/12/09 11:44:41;;;;;;;;;;;7.90;99.90;;;;;;5126627;28;19976;-31
2023/12/09 11:47:07;;;;;;;;;;;7.90;99.90;;;;;;5118204;28;20009;-31
2023/12/09 11:49:35;;;;;;;;;;;7.90;99.90;;;;;;5096552;28;19938;-32
2023/12/09 11:52:02;;;;;;;;;;;7.90;99.90;;;;;;5131293;28;19968;-31
2023/12/09 11:54:28;;;;;;;;;;;7.90;99.90;;;;;;5119795;28;19955;-31
2023/12/09 11:56:55;;;;;;;;;;;7.90;99.90;;;;;;5107555;28;19944;-31
2023/12/09 11:59:22;;;;;;;;;;;7.90;99.90;;;;;;5128926;28;20361;-31
2023/12/09 12:01:48;;;;;;;;;;;7.90;99.90;;;;;;5121195;28;20008;-31
2023/12/09 12:04:15;;;;;;;;;;;7.90;99.90;;;;;;5114291;28;20019;-33
2023/12/09 12:06:43;;;;;;;;;;;7.90;99.90;;;;;;5116730;28;19959;-31
2023/12/09 12:09:09;;;;;;;;;;;7.90;99.90;;;;;;5113718;28;20179;-32
2023/12/09 12:11:36;;;;;;;;;;;8.00;99.90;;;;;;5100487;28;19934;-32
2023/12/09 12:14:04;;;;;;;;;;;8.00;99.90;;;;;;4933806;27;4809171;-31
2023/12/09 12:16:31;;;;;;;;;;;8.00;99.90;;;;;;5136257;27;20143;-31
2023/12/09 12:18:57;;;;;;;;;;;8.00;99.90;;;;;;5118043;27;19938;-33
2023/12/09 12:21:24;;;;;;;;;;;8.10;99.90;;;;;;5113666;27;19943;-32
2023/12/09 12:23:53;;;;;;;;;;;8.10;99.90;;;;;;5116004;27;19942;-31
2023/12/09 12:26:19;;;;;;;;;;;8.10;99.90;;;;;;5116779;27;20384;-31
2023/12/09 12:28:47;;;;;;;;;;;8.10;99.90;;;;;;5134916;27;19943;-32
2023/12/09 12:31:14;;;;;;;;;;;8.10;99.90;;;;;;5116934;27;19968;-31
2023/12/09 12:33:41;;;;;;;;;;;8.10;99.90;;;;;;5134897;27;19969;-32
2023/12/09 12:36:08;;;;;;;;;;;8.20;99.90;;;;;;5134385;27;20330;-32
2023/12/09 12:38:35;;;;;;;;;;;8.20;99.90;;;;;;5110338;27;19940;-32
2023/12/09 12:41:03;;;;;;;;;;;8.20;99.90;;;;;;5131994;27;19923;-32
2023/12/09 12:43:31;;;;;;;;;;;8.20;99.90;;;;;;5134579;27;19934;-31
2023/12/09 12:45:58;;;;;;;;;;;8.30;99.90;;;;;;5116738;27;19924;-31
2023/12/09 12:48:25;;;;;;;;;;;8.20;99.90;;;;;;5117394;27;19953;-31
2023/12/09 12:50:51;;;;;;;;;;;8.30;99.90;;;;;;5116794;27;19930;-32
2023/12/09 12:53:19;;;;;;;;;;;8.30;99.90;;;;;;5133051;27;19946;-32
2023/12/09 12:55:46;;;;;;;;;;;8.30;99.90;;;;;;5116316;27;20383;-32
2023/12/09 12:58:14;;;;;;;;;;;8.30;99.90;;;;;;5133757;27;19970;-31
2023/12/09 13:00:41;;;;;;;;;;;8.30;99.90;;;;;;5101462;28;19965;-31
2023/12/09 13:03:08;;;;;;;;;;;8.30;99.90;;;;;;5130687;27;20347;-32
2023/12/09 13:05:35;;;;;;;;;;;8.30;99.90;;;;;;5125906;27;20046;-32
2023/12/09 13:08:04;;;;;;;;;;;8.40;99.90;;;;;;5134152;27;19927;-32
2023/12/09 13:10:30;;;;;;;;;;;8.40;99.90;;;;;;5135183;27;19988;-31
2023/12/09 13:12:57;;;;;;;;;;;8.40;99.90;;;;;;5134897;27;19924;-31
2023/12/09 13:15:26;;;;;;;;;;;8.40;99.90;;;;;;5133294;27;19933;-31
2023/12/09 13:17:53;;;;;;;;;;;8.40;99.90;;;;;;5115286;27;19984;-31
2023/12/09 13:20:19;;;;;;;;;;;8.30;99.90;;;;;;5134871;27;19960;-31
2023/12/09 13:22:46;;;;;;;;;;;8.40;99.90;;;;;;5106837;28;19935;-31
2023/12/09 13:25:13;;;;;;;;;;;8.40;99.90;;;;;;5096239;28;20426;-32
2023/12/09 13:27:41;;;;;;;;;;;8.40;99.90;;;;;;5096307;28;19971;-31
2023/12/09 13:30:09;;;;;;;;;;;8.30;99.90;;;;;;5104858;27;20030;-32
2023/12/09 13:32:37;;;;;;;;;;;8.30;99.90;;;;;;5134188;27;20317;-31
2023/12/09 13:35:05;;;;;;;;;;;8.30;99.90;;;;;;5133960;27;20366;-31
2023/12/09 13:37:32;;;;;;;;;;;8.30;99.90;;;;;;5134150;27;19938;-31
2023/12/09 13:39:58;;;;;;;;;;;8.30;99.90;;;;;;5134079;27;19923;-31
2023/12/09 13:42:25;;;;;;;;;;;8.20;99.90;;;;;;5134560;27;20401;-31
2023/12/09 13:44:52;;;;;;;;;;;8.20;99.90;;;;;;5134576;27;19968;-31
2023/12/09 13:47:19;;;;;;;;;;;8.20;99.90;;;;;;5111124;27;19998;-31
2023/12/09 13:49:47;;;;;;;;;;;8.10;99.90;;;;;;5114341;27;19959;-31
2023/12/09 13:52:15;;;;;;;;;;;8.10;99.90;;;;;;5134012;27;20418;-32
2023/12/09 13:54:42;;;;;;;;;;;8.00;99.90;;;;;;5133962;27;19940;-31
2023/12/09 13:57:09;;;;;;;;;;;8.00;99.90;;;;;;5115921;27;19968;-31
2023/12/09 13:59:36;;;;;;;;;;;8.00;99.90;;;;;;5134029;27;19995;-31
2023/12/09 14:02:02;;;;;;;;;;;8.00;99.90;;;;;;5115713;27;19924;-31
2023/12/09 14:04:29;;;;;;;;;;;8.00;99.90;;;;;;5097753;28;19958;-31
2023/12/09 14:06:57;;;;;;;;;;;8.00;99.90;;;;;;5134140;27;19947;-30
2023/12/09 14:09:24;;;;;;;;;;;7.90;99.90;;;;;;5132721;27;20389;-31
2023/12/09 14:11:51;;;;;;;;;;;7.90;99.90;;;;;;5132633;27;19970;-32
2023/12/09 14:14:18;;;;;;;;;;;7.90;99.90;;;;;;5134055;27;19931;-31
2023/12/09 14:16:46;;;;;;;;;;;7.90;99.90;;;;;;5132285;27;20317;-31
2023/12/09 14:19:12;;;;;;;;;;;7.90;99.90;;;;;;5127930;27;19936;-31
2023/12/09 14:21:39;;;;;;;;;;;7.90;99.90;;;;;;5113213;28;19941;-30
2023/12/09 14:24:08;;;;;;;;;;;7.80;99.90;;;;;;5095651;28;19924;-31
2023/12/09 14:26:35;;;;;;;;;;;7.80;99.90;;;;;;5096045;28;19977;-32
2023/12/09 14:29:01;;;;;;;;;;;7.80;99.90;;;;;;5120404;27;19938;-30